Latest Weather Observations for Woolshed

IDQ60801

Issued at 4:32 pm EST Thursday 11 February 2016 (issued every 30 minutes, with the page automatically refreshed every 10 minutes)

About weather observations | Map of weather stations | Latest weather observations for QLD | Other Formats
Station Details ID: 033307 Name: WOOLSHED Lat: -19.42 Lon: 146.54 Height: 556.04 m
Data from the previous 72 hours. | See also: Recent months at Woolshed
Date/Time
EST
Temp
°C
App
Temp
°C
Dew
Point
Rel
Hum
%
Delta-T
°C
Wind Press
QNH
hPa
Press
MSL
hPa
Rain
since 9 am
mm
Dir
 
Spd
km/h
Gust
km/h
Spd
kts
Gust
kts
11/04:30pm 22.6 26.6 20.5 88 1.4 CALM 0 11 0 6 1010.5 1006.8 0.0
11/04:00pm 25.5 28.2 20.7 75 3.2 N 7 20 4 11 1010.0 1006.4 0.0
11/03:30pm 26.1 28.2 20.2 70 3.9 N 9 20 5 11 1010.0 1006.4 0.0
11/03:00pm 26.6 29.0 21.6 74 3.4 NNE 11 20 6 11 1010.1 1006.5 0.0
11/02:30pm 28.5 31.3 22.3 69 4.3 NNE 11 20 6 11 1010.1 1006.5 0.0
11/02:00pm 27.2 30.1 19.0 61 5.4 NNE 2 15 1 8 1010.5 1006.8 0.0
11/01:30pm 27.0 30.1 18.6 60 5.5 CALM 0 0 0 0 1010.9 1007.2 0.0
11/01:00pm 26.9 28.7 17.4 56 6.1 ESE 4 13 2 7 1011.3 1007.7 0.0
11/12:30pm 27.7 30.7 19.2 60 5.6 ESE 2 9 1 5 1011.8 1008.2 0.0
11/12:00pm 27.0 29.2 19.1 62 5.2 ESE 6 13 3 7 1012.2 1008.6 0.0
11/11:30am 26.9 29.1 19.3 63 5.0 ESE 6 13 3 7 1012.7 1009.0 0.0
11/11:00am 26.6 29.3 18.7 62 5.2 ESE 2 9 1 5 1012.8 1009.1 0.0
11/10:30am 25.6 27.9 18.5 65 4.6 E 4 9 2 5 1013.0 1009.4 0.0
11/10:00am 25.8 28.4 18.5 64 4.7 ESE 2 9 1 5 1013.0 1009.4 0.0
11/09:30am 24.9 27.0 18.1 66 4.4 ESE 4 11 2 6 1013.1 1009.5 0.0
11/09:00am 25.0 27.9 19.8 73 3.4 E 4 11 2 6 1013.2 1009.6 0.0
11/08:30am 24.6 28.0 19.4 73 3.4 CALM 0 0 0 0 1013.0 1009.4 0.0
11/08:00am 24.3 27.9 19.8 76 3.0 CALM 0 0 0 0 1012.9 1009.3 0.0
11/07:30am 23.0 25.7 18.7 77 2.8 ESE 2 9 1 5 1012.5 1008.8 0.0
11/07:00am 22.1 25.5 19.3 84 1.8 CALM 0 0 0 0 1012.2 1008.6 0.0
11/06:30am 21.0 24.3 19.1 89 1.2 CALM 0 0 0 0 1012.1 1008.5 0.0
11/06:00am 20.8 23.9 18.7 88 1.3 CALM 0 0 0 0 1011.7 1008.1 0.0
11/05:30am 21.0 24.2 18.8 87 1.4 CALM 0 4 0 2 1011.2 1007.5 0.0
11/05:00am 21.1 23.8 18.7 86 1.5 ESE 2 9 1 5 1011.2 1007.5 0.0
11/04:30am 21.3 24.1 18.9 86 1.5 ESE 2 9 1 5 1011.0 1007.3 0.0
11/04:00am 21.2 24.0 18.8 86 1.5 ESE 2 7 1 4 1010.7 1007.0 0.0
11/03:30am 21.2 24.3 18.6 85 1.7 CALM 0 7 0 4 1010.6 1006.9 0.0
11/03:00am 21.3 23.9 18.5 84 1.8 ESE 2 6 1 3 1010.6 1006.9 0.0
11/02:30am 21.4 24.5 18.6 84 1.8 CALM 0 0 0 0 1010.7 1007.0 0.0
11/02:00am 21.4 24.7 19.0 86 1.6 CALM 0 0 0 0 1010.9 1007.2 0.0
11/01:30am 21.6 24.6 19.3 87 1.5 ESE 2 9 1 5 1010.8 1007.1 0.0
11/01:00am 21.9 25.2 20.0 89 1.2 ESE 2 9 1 5 1011.1 1007.4 0.0
11/12:30am 22.3 26.2 20.4 89 1.3 CALM 0 6 0 3 1011.6 1008.0 0.0
11/12:00am 22.4 26.6 20.9 91 1.0 CALM 0 0 0 0 1012.0 1008.4 0.0
 
Date/Time
EST
Temp
°C
App
Temp
°C
Dew
Point
Rel
Hum
%
Delta-T
°C
Wind Press
QNH
hPa
Press
MSL
hPa
Rain
since 9 am
mm
Dir
 
Spd
km/h
Gust
km/h
Spd
kts
Gust
kts
10/11:30pm 22.3 26.2 20.4 89 1.3 CALM 0 0 0 0 1012.2 1008.6 0.0
10/11:00pm 22.6 26.2 20.5 88 1.4 NE 2 11 1 6 1012.3 1008.7 0.0
10/10:30pm 22.7 26.3 21.3 92 0.9 NE 4 13 2 7 1012.6 1008.9 0.0
10/10:00pm 23.0 27.1 21.5 91 1.0 NE 2 13 1 7 1012.7 1009.0 0.0
10/09:30pm 23.2 26.0 21.6 91 1.1 NNE 9 19 5 10 1012.7 1009.0 0.0
10/09:00pm 23.2 26.5 21.8 92 0.9 NNE 7 17 4 9 1012.3 1008.7 0.0
10/08:30pm 23.2 26.5 21.8 92 0.9 NNE 7 19 4 10 1012.2 1008.6 0.0
10/08:00pm 23.1 27.1 21.4 90 1.1 NNE 2 9 1 5 1011.8 1008.2 0.0
10/07:30pm 23.3 27.6 21.2 88 1.4 CALM 0 2 0 1 1011.4 1007.8 0.0
10/07:00pm 23.7 27.3 21.2 86 1.7 N 4 11 2 6 1011.2 1007.5 0.0
10/06:30pm 24.3 26.9 21.2 83 2.1 NNE 9 17 5 9 1010.8 1007.1 0.0
10/06:00pm 24.8 28.3 21.1 80 2.5 NNE 4 13 2 7 1010.3 1006.7 0.0
10/05:30pm 25.6 29.1 21.1 76 3.0 NNE 4 13 2 7 1010.0 1006.4 0.0
10/05:00pm 27.3 30.3 21.3 69 4.1 NNE 7 15 4 8 1009.6 1006.0 0.0
10/04:30pm 27.3 29.5 19.1 61 5.4 NNE 6 13 3 7 1009.6 1006.0 0.0
10/04:00pm 27.1 30.5 19.4 62 5.1 CALM 0 0 0 0 1009.7 1006.1 0.0
10/03:30pm 27.9 30.2 18.6 57 6.1 E 4 11 2 6 1009.6 1006.0 0.0
10/03:00pm 27.9 30.6 18.6 57 6.1 ESE 2 11 1 6 1009.9 1006.3 0.0
10/02:30pm 28.5 31.6 19.4 57 6.0 SE 2 13 1 7 1010.5 1006.8 0.0
10/02:00pm 27.4 29.8 18.9 59 5.6 E 4 13 2 7 1010.8 1007.1 0.0
10/01:30pm 27.6 30.1 19.1 59 5.6 ESE 4 13 2 7 1011.1 1007.4 0.0
10/01:00pm 27.6 30.1 19.1 59 5.6 ESE 4 13 2 7 1011.6 1008.0 0.0
10/12:30pm 26.5 29.1 18.4 61 5.3 ESE 2 17 1 9 1011.9 1008.3 0.0
10/12:00pm 27.0 28.9 18.6 60 5.5 E 6 15 3 8 1012.2 1008.6 0.0
10/11:30am 27.0 29.5 19.1 62 5.2 ESE 4 11 2 6 1012.7 1009.0 0.0
10/11:00am 26.5 28.8 19.4 65 4.7 SE 6 13 3 7 1012.8 1009.1 0.0
10/10:30am 26.2 28.8 19.3 65 4.5 SE 4 13 2 7 1012.9 1009.3 0.0
10/10:00am 25.4 28.2 18.8 67 4.3 SE 2 17 1 9 1013.1 1009.5 0.0
10/09:30am 25.0 27.7 18.7 68 4.1 ESE 2 13 1 7 1013.2 1009.6 0.0
10/09:00am 24.9 27.8 19.1 70 3.8 ESE 2 11 1 6 1013.2 1009.6 0.0
10/08:30am 24.0 25.7 18.4 71 3.6 ESE 7 15 4 8 1013.1 1009.5 0.0
10/08:00am 23.7 25.7 18.8 74 3.2 ESE 6 19 3 10 1012.7 1009.0 0.0
10/07:30am 23.1 24.9 18.4 75 3.0 ESE 6 15 3 8 1012.2 1008.6 0.0
10/07:00am 22.3 24.6 18.5 79 2.4 ESE 4 13 2 7 1011.8 1008.2 0.0
10/06:30am 21.4 23.7 18.6 84 1.8 ESE 4 15 2 8 1011.5 1007.9 0.0
10/06:00am 21.3 23.5 18.3 83 1.9 ESE 4 9 2 5 1011.4 1007.8 0.0
10/05:30am 21.3 23.5 18.3 83 1.9 ESE 4 17 2 9 1011.0 1007.3 0.0
10/05:00am 21.4 23.8 18.8 85 1.7 ESE 4 11 2 6 1010.9 1007.2 0.0
10/04:30am 21.6 23.6 18.8 84 1.8 ESE 6 15 3 8 1010.7 1007.0 0.0
10/04:00am 21.4 24.2 18.8 85 1.7 ESE 2 11 1 6 1010.8 1007.1 0.0
10/03:30am 21.5 24.0 19.1 86 1.6 ESE 4 15 2 8 1010.7 1007.0 0.0
10/03:00am 21.9 23.0 18.9 83 1.9 ESE 11 22 6 12 1010.7 1007.0 0.0
10/02:30am 22.1 23.2 18.9 82 2.1 ESE 11 26 6 14 1010.7 1007.0 0.0
10/02:00am 22.1 22.5 19.1 83 1.9 ESE 15 33 8 18 1010.5 1006.8 0.0
10/01:30am 22.1 22.6 19.3 84 1.8 ESE 15 28 8 15 1011.0 1007.3 0.0
10/01:00am 22.1 24.3 19.6 86 1.6 ESE 7 22 4 12 1011.5 1007.9 0.0
10/12:30am 22.2 24.1 19.7 86 1.6 ESE 9 20 5 11 1012.0 1008.4 0.0
10/12:00am 22.4 24.6 19.6 84 1.8 ESE 7 17 4 9 1012.7 1009.0 0.0
 
Date/Time
EST
Temp
°C
App
Temp
°C
Dew
Point
Rel
Hum
%
Delta-T
°C
Wind Press
QNH
hPa
Press
MSL
hPa
Rain
since 9 am
mm
Dir
 
Spd
km/h
Gust
km/h
Spd
kts
Gust
kts
09/11:30pm 22.5 24.5 19.1 81 2.2 ESE 7 26 4 14 1012.9 1009.3 0.0
09/11:00pm 22.8 24.8 18.8 78 2.6 ESE 6 15 3 8 1013.0 1009.4 0.0
09/10:30pm 23.0 25.1 19.0 78 2.6 ESE 6 17 3 9 1013.2 1009.6 0.0
09/10:00pm 23.4 27.8 21.3 88 1.4 CALM 0 0 0 0 1013.1 1009.5 0.0
09/09:30pm 23.3 27.8 21.6 90 1.1 CALM 0 4 0 2 1012.9 1009.3 0.0
09/09:00pm 23.1 27.7 21.7 92 0.9 CALM 0 0 0 0 1012.7 1009.0 0.0
09/08:30pm 23.2 27.8 21.8 92 0.9 CALM 0 0 0 0 1012.5 1008.8 0.0
09/08:00pm 23.4 28.0 21.8 91 1.1 CALM 0 6 0 3 1012.0 1008.4 0.0
09/07:30pm 23.9 28.1 21.8 88 1.4 NNE 2 9 1 5 1011.9 1008.3 0.0
09/07:00pm 24.5 27.9 21.6 84 2.0 NNE 6 15 3 8 1011.5 1007.9 0.0
09/06:30pm 25.2 28.5 21.5 80 2.5 NNE 6 17 3 9 1011.1 1007.4 0.0
09/06:00pm 26.3 29.6 21.5 75 3.3 NNE 6 13 3 7 1011.1 1007.4 0.0
09/05:30pm 26.5 29.0 21.7 75 3.3 NE 11 19 6 10 1010.9 1007.2 0.0
09/05:00pm 28.0 32.0 22.0 70 4.1 NNE 4 11 2 6 1010.5 1006.8 0.0
09/04:30pm 28.0 31.3 19.0 58 5.9 CALM 0 0 0 0 1010.3 1006.7 0.0
09/04:00pm 28.0 31.3 19.2 58 5.8 CALM 0 0 0 0 1010.2 1006.6 0.0
09/03:30pm 28.6 32.5 20.3 60 5.6 CALM 0 0 0 0 1010.3 1006.7 0.0
09/03:00pm 29.8 33.6 20.1 56 6.5 CALM 0 0 0 0 1010.6 1006.9 0.0
09/02:30pm 29.4 33.1 20.0 57 6.3 CALM 0 0 0 0 1011.0 1007.3 0.0
09/02:00pm 28.7 31.8 19.6 58 6.1 ESE 2 11 1 6 1011.2 1007.5 0.0
09/01:30pm 28.7 31.5 19.6 58 6.1 ESE 4 11 2 6 1011.8 1008.2 0.0
09/01:00pm 27.9 29.8 17.7 53 6.6 ESE 4 13 2 7 1012.1 1008.5 0.0
09/12:30pm 27.5 30.8 19.0 59 5.6 CALM 0 6 0 3 1012.6 1008.9 0.0
09/12:00pm 27.4 30.1 19.5 62 5.2 ESE 4 9 2 5 1012.9 1009.3 0.0
09/11:30am 27.1 29.5 18.7 60 5.5 ESE 4 9 2 5 1013.2 1009.6 0.0
09/11:00am 26.7 29.4 20.3 68 4.3 E 6 13 3 7 1013.5 1009.9 0.0
09/10:30am 25.9 27.4 18.8 65 4.6 SE 9 20 5 11 1013.8 1010.2 0.0
09/10:00am 25.9 28.6 19.5 68 4.2 ESE 4 13 2 7 1013.8 1010.2 0.0
09/09:30am 25.8 28.3 19.9 70 3.9 ESE 6 13 3 7 1013.8 1010.2 0.0
09/09:00am 24.7 26.7 19.1 71 3.7 SE 7 20 4 11 1013.8 1010.2 36.6
09/08:30am 24.6 26.5 19.7 74 3.2 SE 9 22 5 12 1013.7 1010.1 36.6
09/08:00am 24.1 26.5 20.8 82 2.2 SE 9 19 5 10 1013.4 1009.8 36.6
09/07:30am 23.0 26.1 21.1 89 1.3 ESE 6 13 3 7 1013.2 1009.6 36.6
09/07:00am 22.8 25.6 20.9 89 1.3 ESE 7 17 4 9 1013.0 1009.4 36.6
09/06:30am 22.3 25.5 20.6 90 1.1 SE 4 15 2 8 1012.8 1009.1 36.6
09/06:00am 22.4 26.8 21.4 94 0.7 CALM 0 7 0 4 1012.8 1009.1 36.6
09/05:30am 22.3 26.4 21.5 95 0.5 E 2 15 1 8 1012.2 1008.6 36.6
09/05:00am 22.4 25.8 21.6 95 0.5 ESE 6 15 3 8 1011.9 1008.3 36.6
09/04:30am 22.4 26.4 21.4 94 0.7 ESE 2 9 1 5 1011.7 1008.1 36.6
09/04:00am 22.4 25.5 21.4 94 0.7 ESE 7 22 4 12 1011.4 1007.8 36.6
09/03:30am 22.4 25.5 21.4 94 0.7 ESE 7 19 4 10 1011.4 1007.8 36.6
09/03:00am 22.3 25.6 21.5 95 0.5 ESE 6 20 3 11 1011.4 1007.8 36.6
09/02:30am 22.4 26.2 21.7 96 0.5 ESE 4 15 2 8 1011.6 1008.0 36.6
09/02:00am 22.3 25.1 21.6 96 0.5 ESE 9 22 5 12 1011.5 1007.9 36.6
09/01:30am 22.2 26.9 22.0 99 0.1 CALM 0 0 0 0 1011.8 1008.2 36.6
09/01:00am 22.3 27.1 22.1 99 0.1 CALM 0 6 0 3 1012.1 1008.5 36.6
09/12:30am 22.5 27.0 22.3 99 0.1 E 2 11 1 6 1012.2 1008.6 36.6
09/12:00am 22.5 27.0 22.3 99 0.1 ESE 2 9 1 5 1012.9 1009.3 36.4
 
Date/Time
EST
Temp
°C
App
Temp
°C
Dew
Point
Rel
Hum
%
Delta-T
°C
Wind Press
QNH
hPa
Press
MSL
hPa
Rain
since 9 am
mm
Dir
 
Spd
km/h
Gust
km/h
Spd
kts
Gust
kts
08/11:30pm 22.3 27.1 22.1 99 0.1 CALM 0 0 0 0 1013.2 1009.6 36.4
08/11:00pm 22.1 26.8 21.9 99 0.1 CALM 0 0 0 0 1013.9 1010.3 35.8
08/10:30pm 22.1 26.7 21.8 98 0.2 CALM 0 0 0 0 1013.8 1010.2 35.4
08/10:00pm 21.6 25.5 21.1 97 0.3 ESE 2 11 1 6 1013.5 1009.9 35.4
08/09:30pm 21.6 26.0 21.3 98 0.2 CALM 0 4 0 2 1013.2 1009.6 35.4
08/09:00pm 21.9 26.5 21.7 99 0.1 CALM 0 2 0 1 1013.2 1009.6 35.4
08/08:30pm 21.8 25.9 21.5 98 0.2 ESE 2 13 1 7 1012.6 1008.9 35.0
08/08:00pm 21.6 25.1 21.1 97 0.3 SSE 4 13 2 7 1012.5 1008.8 31.8
08/07:30pm 21.9 24.5 21.2 96 0.5 S 9 20 5 11 1012.2 1008.6 17.0
08/07:00pm 24.7 29.1 24.5 99 0.1 NNE 9 19 5 10 1011.7 1008.1 0.4
08/06:30pm 24.7 29.1 24.4 98 0.2 NNE 9 19 5 10 1011.1 1007.4 0.4
08/06:00pm 24.8 28.7 24.3 97 0.4 NNE 11 24 6 13 1011.2 1007.5 0.4
08/05:30pm 25.3 30.3 23.9 92 1.0 NNE 4 13 2 7 1011.0 1007.3 0.4
08/05:00pm 25.7 31.6 24.1 91 1.1 CALM 0 0 0 0 1010.5 1006.8 0.4

Other Formats:

Comma delimited format used in spreadsheet applications
http://www.bom.gov.au/fwo/IDQ60801/IDQ60801.95293.axf

JavaScript Object Notation format (JSON) in row-major order
http://www.bom.gov.au/fwo/IDQ60801/IDQ60801.95293.json